sensor_id;sensor_type;location;lat;lon;timestamp;pressure;altitude;pressure_sealevel;temperature;humidity
46379;BME280;32084;42.254;22.744;2023-03-18T00:00:39;95592.00;;;1.71;72.29
46379;BME280;32084;42.254;22.744;2023-03-18T00:03:05;95577.53;;;1.35;72.52
46379;BME280;32084;42.254;22.744;2023-03-18T00:05:32;95580.25;;;1.33;73.73
46379;BME280;32084;42.254;22.744;2023-03-18T00:07:59;95576.19;;;1.42;73.52
46379;BME280;32084;42.254;22.744;2023-03-18T00:10:26;95575.34;;;1.27;73.94
46379;BME280;32084;42.254;22.744;2023-03-18T00:12:52;95570.06;;;1.13;73.58
46379;BME280;32084;42.254;22.744;2023-03-18T00:15:18;95571.41;;;1.20;74.04
46379;BME280;32084;42.254;22.744;2023-03-18T00:17:45;95565.19;;;1.35;73.90
46379;BME280;32084;42.254;22.744;2023-03-18T00:20:11;95560.03;;;1.20;73.44
46379;BME280;32084;42.254;22.744;2023-03-18T00:22:39;95558.13;;;1.07;73.44
46379;BME280;32084;42.254;22.744;2023-03-18T00:25:06;95555.31;;;1.10;73.34
46379;BME280;32084;42.254;22.744;2023-03-18T00:27:32;95555.94;;;0.85;74.26
46379;BME280;32084;42.254;22.744;2023-03-18T00:29:59;95552.97;;;0.91;74.60
46379;BME280;32084;42.254;22.744;2023-03-18T00:32:25;95552.28;;;1.02;74.12
46379;BME280;32084;42.254;22.744;2023-03-18T00:34:52;95557.00;;;0.97;74.10
46379;BME280;32084;42.254;22.744;2023-03-18T00:37:19;95551.28;;;1.05;74.25
46379;BME280;32084;42.254;22.744;2023-03-18T00:39:56;95555.28;;;0.96;74.39
46379;BME280;32084;42.254;22.744;2023-03-18T00:42:22;95548.25;;;0.82;74.56
46379;BME280;32084;42.254;22.744;2023-03-18T00:44:48;95546.06;;;0.74;74.46
46379;BME280;32084;42.254;22.744;2023-03-18T00:47:14;95543.59;;;0.71;74.88
46379;BME280;32084;42.254;22.744;2023-03-18T00:49:41;95541.84;;;0.86;74.56
46379;BME280;32084;42.254;22.744;2023-03-18T00:52:07;95541.56;;;0.91;73.99
46379;BME280;32084;42.254;22.744;2023-03-18T00:54:33;95539.75;;;0.77;74.35
46379;BME280;32084;42.254;22.744;2023-03-18T00:57:00;95536.38;;;0.75;74.34
46379;BME280;32084;42.254;22.744;2023-03-18T00:59:26;95534.78;;;0.72;74.22
46379;BME280;32084;42.254;22.744;2023-03-18T01:01:52;95534.38;;;0.64;74.58
46379;BME280;32084;42.254;22.744;2023-03-18T01:04:18;95531.94;;;0.75;74.44
46379;BME280;32084;42.254;22.744;2023-03-18T01:06:46;95528.09;;;0.81;74.29
46379;BME280;32084;42.254;22.744;2023-03-18T01:09:12;95520.66;;;0.59;74.16
46379;BME280;32084;42.254;22.744;2023-03-18T01:11:39;95520.22;;;0.67;73.79
46379;BME280;32084;42.254;22.744;2023-03-18T01:14:05;95525.34;;;0.54;74.03
46379;BME280;32084;42.254;22.744;2023-03-18T01:16:31;95530.09;;;0.33;74.38
46379;BME280;32084;42.254;22.744;2023-03-18T01:18:57;95532.28;;;0.41;74.56
46379;BME280;32084;42.254;22.744;2023-03-18T01:21:23;95528.91;;;0.23;74.72
46379;BME280;32084;42.254;22.744;2023-03-18T01:23:49;95531.13;;;0.00;75.82
46379;BME280;32084;42.254;22.744;2023-03-18T01:26:15;95530.41;;;0.12;76.11
46379;BME280;32084;42.254;22.744;2023-03-18T01:28:41;95531.53;;;-0.08;76.69
46379;BME280;32084;42.254;22.744;2023-03-18T01:31:07;95524.84;;;-0.13;77.16
46379;BME280;32084;42.254;22.744;2023-03-18T01:33:34;95521.00;;;0.08;76.88
46379;BME280;32084;42.254;22.744;2023-03-18T01:36:01;95526.84;;;0.13;75.87
46379;BME280;32084;42.254;22.744;2023-03-18T01:38:28;95524.31;;;-0.04;76.04
46379;BME280;32084;42.254;22.744;2023-03-18T01:40:55;95519.78;;;-0.16;76.33
46379;BME280;32084;42.254;22.744;2023-03-18T01:43:24;95504.91;;;-0.17;76.52
46379;BME280;32084;42.254;22.744;2023-03-18T01:45:52;95511.72;;;-0.29;76.95
46379;BME280;32084;42.254;22.744;2023-03-18T01:48:20;95515.28;;;-0.14;77.16
46379;BME280;32084;42.254;22.744;2023-03-18T01:50:48;95508.84;;;0.06;76.40
46379;BME280;32084;42.254;22.744;2023-03-18T01:53:17;95515.22;;;0.02;75.90
46379;BME280;32084;42.254;22.744;2023-03-18T01:55:44;95514.31;;;-0.13;76.22
46379;BME280;32084;42.254;22.744;2023-03-18T01:58:13;95516.75;;;-0.25;76.64
46379;BME280;32084;42.254;22.744;2023-03-18T02:00:43;95507.56;;;-0.33;76.86
46379;BME280;32084;42.254;22.744;2023-03-18T02:03:11;95505.94;;;-0.20;77.11
46379;BME280;32084;42.254;22.744;2023-03-18T02:05:37;95515.34;;;0.00;76.51
46379;BME280;32084;42.254;22.744;2023-03-18T02:08:05;95508.53;;;0.12;76.39
46379;BME280;32084;42.254;22.744;2023-03-18T02:10:31;95503.13;;;-0.01;75.58
46379;BME280;32084;42.254;22.744;2023-03-18T02:12:58;95496.72;;;-0.11;76.10
46379;BME280;32084;42.254;22.744;2023-03-18T02:15:26;95490.56;;;-0.12;76.00
46379;BME280;32084;42.254;22.744;2023-03-18T02:17:54;95493.66;;;-0.20;75.65
46379;BME280;32084;42.254;22.744;2023-03-18T02:22:59;95482.84;;;-0.61;76.42
46379;BME280;32084;42.254;22.744;2023-03-18T02:28:13;95490.72;;;-0.77;77.80
46379;BME280;32084;42.254;22.744;2023-03-18T02:30:43;95481.25;;;-0.64;77.88
46379;BME280;32084;42.254;22.744;2023-03-18T02:33:11;95484.47;;;-0.58;77.17
46379;BME280;32084;42.254;22.744;2023-03-18T02:35:38;95475.56;;;-0.72;77.83
46379;BME280;32084;42.254;22.744;2023-03-18T02:38:05;95480.13;;;-0.60;78.54
46379;BME280;32084;42.254;22.744;2023-03-18T02:40:33;95479.78;;;-0.37;76.84
46379;BME280;32084;42.254;22.744;2023-03-18T02:48:23;95480.34;;;-0.16;76.76
46379;BME280;32084;42.254;22.744;2023-03-18T02:50:52;95482.78;;;-0.13;75.99
46379;BME280;32084;42.254;22.744;2023-03-18T02:53:19;95480.34;;;-0.32;76.00
46379;BME280;32084;42.254;22.744;2023-03-18T02:55:45;95486.88;;;-0.24;76.77
46379;BME280;32084;42.254;22.744;2023-03-18T02:58:11;95484.00;;;-0.35;75.68
46379;BME280;32084;42.254;22.744;2023-03-18T03:00:37;95483.34;;;-0.70;76.01
46379;BME280;32084;42.254;22.744;2023-03-18T03:03:04;95479.53;;;-0.96;76.78
46379;BME280;32084;42.254;22.744;2023-03-18T03:05:31;95486.38;;;-0.94;77.35
46379;BME280;32084;42.254;22.744;2023-03-18T03:07:58;95483.63;;;-0.91;77.18
46379;BME280;32084;42.254;22.744;2023-03-18T03:10:24;95482.19;;;-1.14;77.70
46379;BME280;32084;42.254;22.744;2023-03-18T03:12:50;95481.91;;;-1.25;78.36
46379;BME280;32084;42.254;22.744;2023-03-18T03:15:17;95478.31;;;-1.23;78.74
46379;BME280;32084;42.254;22.744;2023-03-18T03:17:44;95483.28;;;-1.18;78.71
46379;BME280;32084;42.254;22.744;2023-03-18T03:20:10;95486.09;;;-1.21;78.71
46379;BME280;32084;42.254;22.744;2023-03-18T03:22:36;95487.97;;;-1.23;78.77
46379;BME280;32084;42.254;22.744;2023-03-18T03:25:02;95479.28;;;-1.08;78.78
46379;BME280;32084;42.254;22.744;2023-03-18T03:27:29;95492.81;;;-0.84;78.41
46379;BME280;32084;42.254;22.744;2023-03-18T03:29:55;95491.06;;;-0.67;77.65
46379;BME280;32084;42.254;22.744;2023-03-18T03:32:21;95494.38;;;-0.80;77.02
46379;BME280;32084;42.254;22.744;2023-03-18T03:34:47;95500.09;;;-1.05;77.53
46379;BME280;32084;42.254;22.744;2023-03-18T03:37:13;95493.50;;;-0.96;77.67
46379;BME280;32084;42.254;22.744;2023-03-18T03:39:40;95487.69;;;-0.85;78.13
46379;BME280;32084;42.254;22.744;2023-03-18T03:42:06;95497.16;;;-0.83;77.14
46379;BME280;32084;42.254;22.744;2023-03-18T03:44:32;95497.72;;;-1.09;76.71
46379;BME280;32084;42.254;22.744;2023-03-18T03:46:58;95494.88;;;-1.38;77.51
46379;BME280;32084;42.254;22.744;2023-03-18T03:49:24;95493.97;;;-1.54;79.02
46379;BME280;32084;42.254;22.744;2023-03-18T03:51:50;95498.81;;;-1.47;79.35
46379;BME280;32084;42.254;22.744;2023-03-18T03:54:16;95490.06;;;-1.14;79.01
46379;BME280;32084;42.254;22.744;2023-03-18T03:56:42;95490.72;;;-0.93;78.03
46379;BME280;32084;42.254;22.744;2023-03-18T03:59:08;95487.69;;;-0.85;77.79
46379;BME280;32084;42.254;22.744;2023-03-18T04:01:35;95487.56;;;-1.00;77.28
46379;BME280;32084;42.254;22.744;2023-03-18T04:04:01;95495.16;;;-1.11;77.79
46379;BME280;32084;42.254;22.744;2023-03-18T04:06:28;95486.91;;;-1.36;78.18
46379;BME280;32084;42.254;22.744;2023-03-18T04:08:54;95491.00;;;-1.48;78.64
46379;BME280;32084;42.254;22.744;2023-03-18T04:11:20;95487.25;;;-1.60;78.81
46379;BME280;32084;42.254;22.744;2023-03-18T04:13:46;95487.88;;;-1.55;79.45
46379;BME280;32084;42.254;22.744;2023-03-18T04:16:12;95491.06;;;-1.32;78.86
46379;BME280;32084;42.254;22.744;2023-03-18T04:18:39;95490.19;;;-1.33;78.38
46379;BME280;32084;42.254;22.744;2023-03-18T04:21:05;95489.75;;;-1.41;78.91
46379;BME280;32084;42.254;22.744;2023-03-18T04:23:33;95492.59;;;-1.28;78.63
46379;BME280;32084;42.254;22.744;2023-03-18T04:25:59;95499.72;;;-1.14;77.93
46379;BME280;32084;42.254;22.744;2023-03-18T04:28:25;95502.63;;;-1.19;77.61
46379;BME280;32084;42.254;22.744;2023-03-18T04:30:51;95494.34;;;-1.11;77.99
46379;BME280;32084;42.254;22.744;2023-03-18T04:33:17;95496.13;;;-1.29;77.76
46379;BME280;32084;42.254;22.744;2023-03-18T04:35:44;95494.59;;;-1.33;78.78
46379;BME280;32084;42.254;22.744;2023-03-18T04:38:10;95501.03;;;-1.39;78.82
46379;BME280;32084;42.254;22.744;2023-03-18T04:40:36;95497.66;;;-1.25;78.59
46379;BME280;32084;42.254;22.744;2023-03-18T04:43:03;95499.59;;;-1.11;78.55
46379;BME280;32084;42.254;22.744;2023-03-18T04:45:29;95496.69;;;-1.07;77.80
46379;BME280;32084;42.254;22.744;2023-03-18T04:47:55;95512.63;;;-1.10;78.12
46379;BME280;32084;42.254;22.744;2023-03-18T04:50:21;95505.03;;;-0.99;78.08
46379;BME280;32084;42.254;22.744;2023-03-18T04:52:47;95498.41;;;-1.06;77.37
46379;BME280;32084;42.254;22.744;2023-03-18T04:55:13;95506.03;;;-1.01;77.07
46379;BME280;32084;42.254;22.744;2023-03-18T04:57:41;95512.78;;;-0.97;76.90
46379;BME280;32084;42.254;22.744;2023-03-18T05:00:09;95504.13;;;-1.15;76.68
46379;BME280;32084;42.254;22.744;2023-03-18T05:02:36;95510.97;;;-1.28;76.99
46379;BME280;32084;42.254;22.744;2023-03-18T05:05:03;95513.19;;;-1.21;77.00
46379;BME280;32084;42.254;22.744;2023-03-18T05:07:29;95519.41;;;-0.90;77.26
46379;BME280;32084;42.254;22.744;2023-03-18T05:09:55;95522.69;;;-0.53;75.43
46379;BME280;32084;42.254;22.744;2023-03-18T05:12:22;95523.41;;;-0.35;74.25
46379;BME280;32084;42.254;22.744;2023-03-18T05:14:51;95526.66;;;-0.30;74.49
46379;BME280;32084;42.254;22.744;2023-03-18T05:17:19;95522.59;;;-0.35;75.07
46379;BME280;32084;42.254;22.744;2023-03-18T05:19:48;95524.84;;;-0.29;75.64
46379;BME280;32084;42.254;22.744;2023-03-18T05:22:17;95534.59;;;0.01;75.13
46379;BME280;32084;42.254;22.744;2023-03-18T05:24:47;95533.34;;;0.22;74.71
46379;BME280;32084;42.254;22.744;2023-03-18T05:27:16;95532.00;;;0.45;73.94
46379;BME280;32084;42.254;22.744;2023-03-18T05:29:44;95541.59;;;0.61;73.50
46379;BME280;32084;42.254;22.744;2023-03-18T05:32:13;95540.91;;;1.02;73.20
46379;BME280;32084;42.254;22.744;2023-03-18T05:34:41;95545.88;;;1.49;71.45
46379;BME280;32084;42.254;22.744;2023-03-18T05:37:10;95553.44;;;1.83;70.58
46379;BME280;32084;42.254;22.744;2023-03-18T05:39:39;95544.44;;;2.00;70.62
46379;BME280;32084;42.254;22.744;2023-03-18T05:42:07;95543.72;;;2.10;70.06
46379;BME280;32084;42.254;22.744;2023-03-18T05:44:35;95553.66;;;2.34;70.32
46379;BME280;32084;42.254;22.744;2023-03-18T05:47:04;95554.53;;;2.47;70.08
46379;BME280;32084;42.254;22.744;2023-03-18T05:49:33;95555.53;;;2.72;69.43
46379;BME280;32084;42.254;22.744;2023-03-18T05:52:01;95557.00;;;2.76;69.65
46379;BME280;32084;42.254;22.744;2023-03-18T05:54:27;95556.28;;;3.00;69.63
46379;BME280;32084;42.254;22.744;2023-03-18T05:56:56;95565.50;;;3.32;68.46
46379;BME280;32084;42.254;22.744;2023-03-18T05:59:24;95565.84;;;3.78;66.78
46379;BME280;32084;42.254;22.744;2023-03-18T06:01:52;95567.34;;;4.30;65.20
46379;BME280;32084;42.254;22.744;2023-03-18T06:04:21;95571.94;;;4.99;61.95
46379;BME280;32084;42.254;22.744;2023-03-18T06:06:49;95579.09;;;6.45;57.58
46379;BME280;32084;42.254;22.744;2023-03-18T06:09:18;95584.41;;;7.61;53.11
46379;BME280;32084;42.254;22.744;2023-03-18T06:11:46;95582.81;;;7.80;51.94
46379;BME280;32084;42.254;22.744;2023-03-18T06:14:14;95580.84;;;7.51;52.80
46379;BME280;32084;42.254;22.744;2023-03-18T06:16:42;95568.78;;;7.26;54.28
46379;BME280;32084;42.254;22.744;2023-03-18T06:19:10;95582.38;;;6.70;54.70
46379;BME280;32084;42.254;22.744;2023-03-18T06:21:39;95571.81;;;6.58;55.20
46379;BME280;32084;42.254;22.744;2023-03-18T06:24:07;95577.44;;;6.65;55.92
46379;BME280;32084;42.254;22.744;2023-03-18T06:26:35;95565.25;;;6.62;57.60
46379;BME280;32084;42.254;22.744;2023-03-18T06:29:02;95571.41;;;6.63;55.99
46379;BME280;32084;42.254;22.744;2023-03-18T06:31:32;95568.50;;;6.66;55.18
46379;BME280;32084;42.254;22.744;2023-03-18T06:34:00;95587.09;;;6.66;55.20
46379;BME280;32084;42.254;22.744;2023-03-18T06:36:29;95563.91;;;6.68;55.42
46379;BME280;32084;42.254;22.744;2023-03-18T06:38:58;95562.63;;;7.04;55.08
46379;BME280;32084;42.254;22.744;2023-03-18T06:41:26;95562.00;;;7.64;54.40
46379;BME280;32084;42.254;22.744;2023-03-18T06:43:55;95559.44;;;7.84;54.02
46379;BME280;32084;42.254;22.744;2023-03-18T06:46:24;95564.34;;;8.38;52.17
46379;BME280;32084;42.254;22.744;2023-03-18T06:48:52;95558.09;;;9.08;50.14
46379;BME280;32084;42.254;22.744;2023-03-18T06:51:21;95560.53;;;9.58;47.85
46379;BME280;32084;42.254;22.744;2023-03-18T06:53:49;95558.00;;;9.56;49.15
46379;BME280;32084;42.254;22.744;2023-03-18T06:56:18;95554.72;;;9.06;51.15
46379;BME280;32084;42.254;22.744;2023-03-18T06:58:45;95547.16;;;8.72;50.88
46379;BME280;32084;42.254;22.744;2023-03-18T07:01:13;95548.41;;;8.97;51.00
46379;BME280;32084;42.254;22.744;2023-03-18T07:03:41;95547.41;;;9.17;51.03
46379;BME280;32084;42.254;22.744;2023-03-18T07:06:11;95548.25;;;9.08;51.10
46379;BME280;32084;42.254;22.744;2023-03-18T07:08:39;95542.38;;;8.95;51.71
46379;BME280;32084;42.254;22.744;2023-03-18T07:11:07;95546.00;;;9.23;51.61
46379;BME280;32084;42.254;22.744;2023-03-18T07:13:35;95546.41;;;9.28;51.17
46379;BME280;32084;42.254;22.744;2023-03-18T07:16:03;95552.94;;;9.53;50.96
46379;BME280;32084;42.254;22.744;2023-03-18T07:18:31;95550.03;;;9.47;50.65
46379;BME280;32084;42.254;22.744;2023-03-18T07:20:59;95553.88;;;9.72;50.06
46379;BME280;32084;42.254;22.744;2023-03-18T07:23:28;95559.22;;;10.09;49.26
46379;BME280;32084;42.254;22.744;2023-03-18T07:25:57;95561.69;;;10.21;48.49
46379;BME280;32084;42.254;22.744;2023-03-18T07:28:24;95555.78;;;10.45;48.80
46379;BME280;32084;42.254;22.744;2023-03-18T07:30:50;95555.31;;;10.04;48.19
46379;BME280;32084;42.254;22.744;2023-03-18T07:33:16;95549.81;;;10.61;46.85
46379;BME280;32084;42.254;22.744;2023-03-18T07:35:42;95550.84;;;10.68;47.16
46379;BME280;32084;42.254;22.744;2023-03-18T07:38:10;95548.56;;;10.55;47.34
46379;BME280;32084;42.254;22.744;2023-03-18T07:40:37;95543.97;;;10.65;47.82
46379;BME280;32084;42.254;22.744;2023-03-18T07:43:03;95536.28;;;10.80;47.08
46379;BME280;32084;42.254;22.744;2023-03-18T07:45:29;95535.84;;;11.29;46.29
46379;BME280;32084;42.254;22.744;2023-03-18T07:47:56;95541.69;;;11.50;45.05
46379;BME280;32084;42.254;22.744;2023-03-18T07:50:22;95538.44;;;11.21;45.12
46379;BME280;32084;42.254;22.744;2023-03-18T07:52:48;95533.59;;;11.95;45.12
46379;BME280;32084;42.254;22.744;2023-03-18T07:55:14;95546.81;;;11.96;44.59
46379;BME280;32084;42.254;22.744;2023-03-18T07:57:41;95549.44;;;12.14;44.56
46379;BME280;32084;42.254;22.744;2023-03-18T08:00:09;95540.50;;;12.48;43.27
46379;BME280;32084;42.254;22.744;2023-03-18T08:02:36;95548.13;;;12.26;42.62
46379;BME280;32084;42.254;22.744;2023-03-18T08:05:03;95541.69;;;12.03;43.74
46379;BME280;32084;42.254;22.744;2023-03-18T08:07:32;95544.91;;;12.65;43.18
46379;BME280;32084;42.254;22.744;2023-03-18T08:09:58;95543.44;;;13.04;41.40
46379;BME280;32084;42.254;22.744;2023-03-18T08:12:24;95550.13;;;12.83;41.62
46379;BME280;32084;42.254;22.744;2023-03-18T08:14:50;95542.47;;;12.38;42.13
46379;BME280;32084;42.254;22.744;2023-03-18T08:17:16;95533.88;;;12.85;42.91
46379;BME280;32084;42.254;22.744;2023-03-18T08:19:43;95541.88;;;12.52;42.33
46379;BME280;32084;42.254;22.744;2023-03-18T08:22:09;95534.19;;;12.65;43.72
46379;BME280;32084;42.254;22.744;2023-03-18T08:24:36;95532.72;;;13.20;42.91
46379;BME280;32084;42.254;22.744;2023-03-18T08:27:03;95539.44;;;13.49;39.98
46379;BME280;32084;42.254;22.744;2023-03-18T08:29:29;95541.59;;;13.62;41.11
46379;BME280;32084;42.254;22.744;2023-03-18T08:31:56;95544.13;;;13.63;40.49
46379;BME280;32084;42.254;22.744;2023-03-18T08:34:22;95537.59;;;13.66;39.99
46379;BME280;32084;42.254;22.744;2023-03-18T08:36:48;95547.69;;;13.47;38.78
46379;BME280;32084;42.254;22.744;2023-03-18T08:39:14;95546.47;;;13.83;39.56
46379;BME280;32084;42.254;22.744;2023-03-18T08:41:41;95540.28;;;14.22;39.77
46379;BME280;32084;42.254;22.744;2023-03-18T08:44:07;95533.69;;;13.77;39.46
46379;BME280;32084;42.254;22.744;2023-03-18T08:46:36;95540.38;;;13.89;40.42
46379;BME280;32084;42.254;22.744;2023-03-18T08:49:02;95545.69;;;14.14;38.96
46379;BME280;32084;42.254;22.744;2023-03-18T08:51:28;95555.56;;;14.92;37.01
46379;BME280;32084;42.254;22.744;2023-03-18T08:53:54;95549.28;;;14.37;35.90
46379;BME280;32084;42.254;22.744;2023-03-18T08:56:20;95545.91;;;13.96;37.77
46379;BME280;32084;42.254;22.744;2023-03-18T08:58:47;95545.38;;;14.48;37.22
46379;BME280;32084;42.254;22.744;2023-03-18T09:01:13;95541.13;;;14.93;36.07
46379;BME280;32084;42.254;22.744;2023-03-18T09:03:39;95549.34;;;14.69;36.89
46379;BME280;32084;42.254;22.744;2023-03-18T09:06:05;95551.06;;;14.53;35.21
46379;BME280;32084;42.254;22.744;2023-03-18T09:08:32;95550.97;;;14.38;34.99
46379;BME280;32084;42.254;22.744;2023-03-18T09:10:58;95564.44;;;14.70;33.83
46379;BME280;32084;42.254;22.744;2023-03-18T09:13:24;95551.75;;;15.10;34.92
46379;BME280;32084;42.254;22.744;2023-03-18T09:15:50;95551.88;;;15.39;34.38
46379;BME280;32084;42.254;22.744;2023-03-18T09:18:17;95555.81;;;15.29;33.62
46379;BME280;32084;42.254;22.744;2023-03-18T09:20:44;95553.84;;;15.22;33.80
46379;BME280;32084;42.254;22.744;2023-03-18T09:23:11;95547.69;;;15.37;35.25
46379;BME280;32084;42.254;22.744;2023-03-18T09:25:40;95552.00;;;15.61;33.92
46379;BME280;32084;42.254;22.744;2023-03-18T09:28:07;95538.75;;;15.59;35.44
46379;BME280;32084;42.254;22.744;2023-03-18T09:30:33;95550.78;;;15.87;32.36
46379;BME280;32084;42.254;22.744;2023-03-18T09:32:59;95542.97;;;15.39;33.81
46379;BME280;32084;42.254;22.744;2023-03-18T09:35:26;95542.97;;;15.39;33.85
46379;BME280;32084;42.254;22.744;2023-03-18T09:37:55;95545.59;;;15.62;33.75
46379;BME280;32084;42.254;22.744;2023-03-18T09:45:23;95538.00;;;15.66;33.91
46379;BME280;32084;42.254;22.744;2023-03-18T09:55:45;95527.44;;;14.95;34.99
46379;BME280;32084;42.254;22.744;2023-03-18T09:58:17;95536.97;;;14.82;34.82
46379;BME280;32084;42.254;22.744;2023-03-18T10:00:44;95531.72;;;14.18;35.72
46379;BME280;32084;42.254;22.744;2023-03-18T10:03:13;95533.84;;;13.75;35.65
46379;BME280;32084;42.254;22.744;2023-03-18T10:05:43;95529.50;;;12.84;34.91
46379;BME280;32084;42.254;22.744;2023-03-18T10:11:03;95517.66;;;12.36;37.22
46379;BME280;32084;42.254;22.744;2023-03-18T10:13:34;95519.59;;;12.17;37.42
46379;BME280;32084;42.254;22.744;2023-03-18T10:16:03;95509.94;;;12.33;38.11
46379;BME280;32084;42.254;22.744;2023-03-18T10:18:33;95518.97;;;13.48;36.07
46379;BME280;32084;42.254;22.744;2023-03-18T10:21:10;95519.22;;;13.86;35.60
46379;BME280;32084;42.254;22.744;2023-03-18T10:26:15;95521.41;;;14.30;33.65
46379;BME280;32084;42.254;22.744;2023-03-18T10:31:30;95529.88;;;14.11;33.46
46379;BME280;32084;42.254;22.744;2023-03-18T10:34:00;95520.94;;;14.89;31.95
46379;BME280;32084;42.254;22.744;2023-03-18T10:36:37;95522.75;;;15.58;32.75
46379;BME280;32084;42.254;22.744;2023-03-18T10:39:18;95513.72;;;14.58;32.96
46379;BME280;32084;42.254;22.744;2023-03-18T10:41:49;95510.56;;;13.26;33.42
46379;BME280;32084;42.254;22.744;2023-03-18T10:46:42;95511.78;;;12.24;33.35
46379;BME280;32084;42.254;22.744;2023-03-18T10:49:10;95502.50;;;12.10;34.01
46379;BME280;32084;42.254;22.744;2023-03-18T10:54:10;95492.94;;;12.83;34.98
46379;BME280;32084;42.254;22.744;2023-03-18T10:56:38;95491.13;;;13.89;34.41
46379;BME280;32084;42.254;22.744;2023-03-18T10:59:08;95485.66;;;13.74;35.21
46379;BME280;32084;42.254;22.744;2023-03-18T11:01:36;95489.25;;;13.33;34.50
46379;BME280;32084;42.254;22.744;2023-03-18T11:04:04;95478.34;;;13.10;35.59
46379;BME280;32084;42.254;22.744;2023-03-18T11:06:34;95479.19;;;13.27;36.29
46379;BME280;32084;42.254;22.744;2023-03-18T11:09:05;95477.53;;;12.77;35.50
46379;BME280;32084;42.254;22.744;2023-03-18T11:11:33;95480.19;;;12.85;35.59
46379;BME280;32084;42.254;22.744;2023-03-18T11:14:00;95483.03;;;12.92;34.12
46379;BME280;32084;42.254;22.744;2023-03-18T11:16:28;95490.94;;;12.85;34.63
46379;BME280;32084;42.254;22.744;2023-03-18T11:18:58;95478.69;;;12.74;34.63
46379;BME280;32084;42.254;22.744;2023-03-18T11:21:25;95482.03;;;13.01;35.22
46379;BME280;32084;42.254;22.744;2023-03-18T11:23:54;95482.91;;;13.34;33.33
46379;BME280;32084;42.254;22.744;2023-03-18T11:26:43;95479.69;;;13.39;33.54
46379;BME280;32084;42.254;22.744;2023-03-18T11:29:11;95479.28;;;13.75;32.38
46379;BME280;32084;42.254;22.744;2023-03-18T11:31:49;95485.34;;;14.16;31.87
46379;BME280;32084;42.254;22.744;2023-03-18T11:34:16;95483.50;;;14.48;32.31
46379;BME280;32084;42.254;22.744;2023-03-18T11:36:51;95472.25;;;14.44;31.85
46379;BME280;32084;42.254;22.744;2023-03-18T11:39:18;95476.16;;;14.34;31.92
46379;BME280;32084;42.254;22.744;2023-03-18T11:41:44;95474.34;;;13.95;33.20
46379;BME280;32084;42.254;22.744;2023-03-18T11:44:16;95475.66;;;13.26;33.55
46379;BME280;32084;42.254;22.744;2023-03-18T11:46:44;95472.16;;;12.77;34.18
46379;BME280;32084;42.254;22.744;2023-03-18T11:49:13;95481.13;;;12.35;34.23
46379;BME280;32084;42.254;22.744;2023-03-18T11:57:00;95463.75;;;12.88;33.91
46379;BME280;32084;42.254;22.744;2023-03-18T12:09:27;95475.47;;;13.53;32.56
46379;BME280;32084;42.254;22.744;2023-03-18T12:14:41;95471.47;;;13.07;33.21
46379;BME280;32084;42.254;22.744;2023-03-18T12:17:14;95472.50;;;12.90;33.38
46379;BME280;32084;42.254;22.744;2023-03-18T12:32:24;95487.28;;;11.76;33.59
46379;BME280;32084;42.254;22.744;2023-03-18T12:45:08;95475.56;;;11.85;33.96
46379;BME280;32084;42.254;22.744;2023-03-18T12:48:36;95485.88;;;11.72;33.27
46379;BME280;32084;42.254;22.744;2023-03-18T12:50:35;95475.97;;;11.90;33.99
46379;BME280;32084;42.254;22.744;2023-03-18T12:53:12;95473.75;;;12.37;33.98
46379;BME280;32084;42.254;22.744;2023-03-18T12:55:45;95475.59;;;12.36;33.13
46379;BME280;32084;42.254;22.744;2023-03-18T12:58:15;95479.31;;;12.43;32.62
46379;BME280;32084;42.254;22.744;2023-03-18T13:00:53;95476.03;;;12.07;31.84
46379;BME280;32084;42.254;22.744;2023-03-18T13:05:59;95483.88;;;12.00;32.86
46379;BME280;32084;42.254;22.744;2023-03-18T13:13:53;95470.88;;;12.22;32.84
46379;BME280;32084;42.254;22.744;2023-03-18T13:16:21;95477.13;;;12.39;32.05
46379;BME280;32084;42.254;22.744;2023-03-18T13:18:48;95474.09;;;12.50;32.87
46379;BME280;32084;42.254;22.744;2023-03-18T13:21:18;95476.50;;;13.02;32.17
46379;BME280;32084;42.254;22.744;2023-03-18T13:39:43;95483.28;;;11.88;33.70
46379;BME280;32084;42.254;22.744;2023-03-18T13:44:16;95479.13;;;11.60;34.16
46379;BME280;32084;42.254;22.744;2023-03-18T13:46:57;95471.34;;;11.75;35.20
46379;BME280;32084;42.254;22.744;2023-03-18T13:49:27;95473.13;;;11.92;34.39
46379;BME280;32084;42.254;22.744;2023-03-18T13:51:59;95473.50;;;11.71;33.50
46379;BME280;32084;42.254;22.744;2023-03-18T13:54:29;95474.72;;;11.85;33.69
46379;BME280;32084;42.254;22.744;2023-03-18T13:56:57;95469.28;;;11.95;33.38
46379;BME280;32084;42.254;22.744;2023-03-18T14:04:50;95476.78;;;11.91;32.73
46379;BME280;32084;42.254;22.744;2023-03-18T14:07:17;95477.91;;;11.80;31.94
46379;BME280;32084;42.254;22.744;2023-03-18T14:09:48;95474.44;;;11.53;32.48
46379;BME280;32084;42.254;22.744;2023-03-18T14:14:55;95484.34;;;11.09;34.57
46379;BME280;32084;42.254;22.744;2023-03-18T14:17:25;95486.59;;;10.60;36.25
46379;BME280;32084;42.254;22.744;2023-03-18T14:19:54;95477.81;;;10.31;37.34
46379;BME280;32084;42.254;22.744;2023-03-18T14:22:22;95476.41;;;10.27;37.94
46379;BME280;32084;42.254;22.744;2023-03-18T14:32:55;95463.00;;;10.37;38.80
46379;BME280;32084;42.254;22.744;2023-03-18T14:40:33;95469.56;;;10.43;38.66
46379;BME280;32084;42.254;22.744;2023-03-18T14:43:01;95472.16;;;10.34;38.22
46379;BME280;32084;42.254;22.744;2023-03-18T14:45:32;95482.66;;;10.18;37.62
46379;BME280;32084;42.254;22.744;2023-03-18T14:48:19;95475.25;;;10.30;38.44
46379;BME280;32084;42.254;22.744;2023-03-18T14:50:46;95474.47;;;10.47;37.83
46379;BME280;32084;42.254;22.744;2023-03-18T14:53:19;95475.44;;;10.46;37.53
46379;BME280;32084;42.254;22.744;2023-03-18T14:55:47;95478.38;;;10.53;38.50
46379;BME280;32084;42.254;22.744;2023-03-18T14:58:15;95467.22;;;10.30;38.73
46379;BME280;32084;42.254;22.744;2023-03-18T15:00:42;95474.41;;;10.11;38.60